createdAt,value
2023-02-21T00:01:29.722Z,98977.63
2023-02-21T00:04:17.175Z,98977.09
2023-02-21T00:07:02.911Z,98982.22
2023-02-21T00:09:51.584Z,98983.47
2023-02-21T00:12:38.876Z,98984.28
2023-02-21T00:15:30.157Z,98990.91
2023-02-21T00:18:15.779Z,98988.53
2023-02-21T00:21:03.440Z,98993.44
2023-02-21T00:23:54.236Z,99003.88
2023-02-21T00:26:42.370Z,99010.53
2023-02-21T00:29:29.564Z,99004.00
2023-02-21T00:32:17.088Z,99009.06
2023-02-21T00:35:02.646Z,99006.88
2023-02-21T00:37:49.833Z,99010.06
2023-02-21T00:40:39.244Z,99020.59
2023-02-21T00:43:25.988Z,99023.84
2023-02-21T00:46:15.161Z,99028.69
2023-02-21T00:49:00.911Z,99036.78
2023-02-21T00:51:50.137Z,99044.97
2023-02-21T00:54:35.472Z,99051.66
2023-02-21T00:57:24.664Z,99027.63
2023-02-21T01:00:11.382Z,99052.00
2023-02-21T01:03:00.688Z,99060.44
2023-02-21T01:05:46.050Z,99061.25
2023-02-21T01:08:34.224Z,99069.72
2023-02-21T01:11:19.310Z,99078.53
2023-02-21T01:14:08.357Z,99090.75
2023-02-21T01:16:57.320Z,99095.63
2023-02-21T01:19:48.742Z,99110.75
2023-02-21T01:22:34.132Z,99116.94
2023-02-21T01:25:23.830Z,99126.25
2023-02-21T01:28:09.456Z,99137.38
2023-02-21T01:30:56.970Z,99085.41
2023-02-21T01:33:45.642Z,99142.81
2023-02-21T01:36:30.911Z,99145.16
2023-02-21T01:39:18.055Z,99165.56
2023-02-21T01:42:05.159Z,99176.41
2023-02-21T01:44:55.086Z,99179.47
2023-02-21T01:47:40.923Z,99194.72
2023-02-21T01:50:34.218Z,99193.63
2023-02-21T01:53:24.307Z,99202.28
2023-02-21T01:56:13.387Z,99199.09
2023-02-21T01:59:01.532Z,99204.38
2023-02-21T02:01:55.493Z,99217.78
2023-02-21T02:04:42.851Z,99202.00
2023-02-21T02:07:32.201Z,99225.63
2023-02-21T02:10:19.519Z,99222.03
2023-02-21T02:13:10.607Z,99229.63
2023-02-21T02:15:58.426Z,99236.94
2023-02-21T02:18:46.033Z,99241.41
2023-02-21T02:21:53.260Z,99249.00
2023-02-21T02:24:44.265Z,99253.19
2023-02-21T02:27:43.834Z,99259.25
2023-02-21T02:30:36.575Z,99220.75
2023-02-21T02:33:44.298Z,99265.19
2023-02-21T02:36:16.099Z,99270.28
2023-02-21T02:38:56.458Z,99274.31
2023-02-21T02:41:33.895Z,99277.41
2023-02-21T02:44:20.136Z,99282.66
2023-02-21T02:46:50.505Z,99294.53
2023-02-21T02:49:25.124Z,99267.63
2023-02-21T02:51:54.799Z,99283.19
2023-02-21T02:54:24.723Z,99308.56
2023-02-21T02:56:54.468Z,99308.97
2023-02-21T02:59:26.672Z,99312.69
2023-02-21T03:02:21.902Z,99307.56
2023-02-21T03:05:21.666Z,99306.97
2023-02-21T03:08:02.542Z,99311.19
2023-02-21T03:10:41.918Z,99324.19
2023-02-21T03:13:18.927Z,99284.09
2023-02-21T03:15:50.790Z,99340.56
2023-02-21T03:18:33.736Z,99347.09
2023-02-21T03:21:04.843Z,99363.47
2023-02-21T03:23:39.364Z,99374.84
2023-02-21T03:26:10.169Z,99380.41
2023-02-21T03:28:43.333Z,99361.50
2023-02-21T03:31:13.680Z,99394.56
2023-02-21T03:33:46.709Z,99398.91
2023-02-21T03:36:15.787Z,99403.00
2023-02-21T03:38:47.019Z,99405.81
2023-02-21T03:41:18.792Z,99422.75
2023-02-21T03:43:46.531Z,99431.06
2023-02-21T03:46:16.534Z,99432.88
2023-02-21T03:48:46.553Z,99441.75
2023-02-21T03:51:14.557Z,99446.97
2023-02-21T03:53:46.013Z,99446.28
2023-02-21T03:56:15.583Z,99454.69
2023-02-21T03:58:43.307Z,99462.88
2023-02-21T04:01:13.588Z,99463.56
2023-02-21T04:03:43.167Z,99460.41
2023-02-21T04:06:10.948Z,99430.09
2023-02-21T04:08:40.891Z,99480.06
2023-02-21T04:11:12.021Z,99482.31
2023-02-21T04:13:40.005Z,99486.09
2023-02-21T04:16:09.998Z,99493.97
2023-02-21T04:18:39.595Z,99501.59
2023-02-21T04:21:09.552Z,99511.06
2023-02-21T04:23:37.584Z,99522.09
2023-02-21T04:26:07.601Z,99533.34
2023-02-21T04:28:38.778Z,99539.59
2023-02-21T04:31:06.814Z,99507.97
2023-02-21T04:33:36.495Z,99548.28
2023-02-21T04:36:05.501Z,99529.66
2023-02-21T04:38:33.241Z,99549.78
2023-02-21T04:41:02.920Z,99522.19
2023-02-21T04:43:32.818Z,99568.31
2023-02-21T04:46:01.979Z,99570.81
2023-02-21T04:48:31.656Z,99574.09
2023-02-21T04:51:14.813Z,99579.31
2023-02-21T04:53:45.573Z,99591.88
2023-02-21T04:56:15.969Z,99588.69
2023-02-21T04:58:45.730Z,99596.22
2023-02-21T05:01:21.241Z,99587.66
2023-02-21T05:03:49.103Z,99611.06
2023-02-21T05:06:30.317Z,99605.16
2023-02-21T05:08:58.528Z,99586.16
2023-02-21T05:11:30.599Z,99630.69
2023-02-21T05:13:58.316Z,99638.00
2023-02-21T05:16:27.858Z,99624.34
2023-02-21T05:18:59.794Z,99629.84
2023-02-21T05:21:27.550Z,99627.56
2023-02-21T05:23:57.169Z,99611.78
2023-02-21T05:26:39.241Z,99645.47
2023-02-21T05:29:07.014Z,99650.41
2023-02-21T05:31:38.386Z,99649.75
2023-02-21T05:34:08.008Z,99662.03
2023-02-21T05:36:35.786Z,99665.34
2023-02-21T05:39:06.378Z,99665.91
2023-02-21T05:41:35.837Z,99673.88
2023-02-21T05:44:04.587Z,99643.13
2023-02-21T05:46:38.840Z,99657.28
2023-02-21T05:49:06.727Z,99689.88
2023-02-21T05:51:41.515Z,99692.69
2023-02-21T05:54:16.225Z,99697.78
2023-02-21T05:56:45.819Z,99693.91
2023-02-21T05:59:16.670Z,99695.50
2023-02-21T06:01:46.064Z,99699.44
2023-02-21T06:04:15.884Z,99700.59
2023-02-21T06:06:46.063Z,99722.47
2023-02-21T06:09:16.051Z,99719.72
2023-02-21T06:11:46.526Z,99700.25
2023-02-21T06:14:16.514Z,99728.34
2023-02-21T06:16:50.099Z,99735.34
2023-02-21T06:19:18.920Z,99717.75
2023-02-21T06:21:49.143Z,99753.28
2023-02-21T06:24:19.301Z,99754.22
2023-02-21T06:26:47.092Z,99726.72
2023-02-21T06:29:14.886Z,99770.28
2023-02-21T06:31:48.279Z,99773.53
2023-02-21T06:34:16.056Z,99782.19
2023-02-21T06:36:54.606Z,99787.88
2023-02-21T06:39:24.974Z,99795.28
2023-02-21T06:41:53.345Z,99801.97
2023-02-21T06:44:23.558Z,99818.91
2023-02-21T06:46:54.953Z,99831.34
2023-02-21T06:49:22.975Z,99838.09
2023-02-21T06:51:52.723Z,99848.25
2023-02-21T06:54:25.202Z,99857.38
2023-02-21T06:56:52.929Z,99866.50
2023-02-21T06:59:22.587Z,99865.56
2023-02-21T07:01:53.103Z,99873.91
2023-02-21T07:04:20.883Z,99889.94
2023-02-21T07:06:50.556Z,99903.38
2023-02-21T07:09:18.469Z,99910.09
2023-02-21T07:11:46.979Z,99922.97
2023-02-21T07:14:15.682Z,99939.97
2023-02-21T07:17:07.857Z,99945.06
2023-02-21T07:19:37.319Z,99955.97
2023-02-21T07:22:05.034Z,99934.19
2023-02-21T07:24:32.759Z,99978.75
2023-02-21T07:27:02.661Z,99986.47
2023-02-21T07:29:32.580Z,99997.50
2023-02-21T07:32:00.269Z,100004.31
2023-02-21T07:34:31.595Z,99987.56
2023-02-21T07:36:59.385Z,100020.38
2023-02-21T07:39:27.148Z,100029.50
2023-02-21T07:41:55.097Z,100037.34
2023-02-21T07:44:26.667Z,100048.81
2023-02-21T07:46:58.019Z,100056.41
2023-02-21T07:49:25.713Z,100076.75
2023-02-21T07:51:54.802Z,100075.00
2023-02-21T07:54:26.078Z,100082.41
2023-02-21T07:56:53.800Z,100092.59
2023-02-21T07:59:21.573Z,100101.94
2023-02-21T08:01:53.603Z,100114.66
2023-02-21T08:04:21.801Z,100099.59
2023-02-21T08:06:50.527Z,100134.09
2023-02-21T08:09:22.913Z,100139.31
2023-02-21T08:11:50.658Z,100145.06
2023-02-21T08:14:18.376Z,100127.44
2023-02-21T08:16:46.300Z,100159.97
2023-02-21T08:19:14.083Z,100147.50
2023-02-21T08:21:45.894Z,100175.47
2023-02-21T08:24:17.997Z,100184.97
2023-02-21T08:26:49.362Z,100161.31
2023-02-21T08:29:18.167Z,100196.50
2023-02-21T08:31:48.664Z,100205.09
2023-02-21T08:34:16.496Z,100206.69
2023-02-21T08:36:45.172Z,100223.50
2023-02-21T08:39:16.018Z,100227.56
2023-02-21T08:41:46.937Z,100230.88
2023-02-21T08:44:18.623Z,100235.38
2023-02-21T08:46:51.044Z,100215.03
2023-02-21T08:49:19.231Z,100249.72
2023-02-21T08:51:47.589Z,100199.09
2023-02-21T08:54:19.653Z,100268.75
2023-02-21T08:56:50.612Z,100274.53
2023-02-21T08:59:19.927Z,100282.84
2023-02-21T09:01:49.469Z,100288.84
2023-02-21T09:04:20.452Z,100299.09
2023-02-21T09:06:52.085Z,100271.22
2023-02-21T09:09:20.579Z,100306.63
2023-02-21T09:11:51.373Z,100312.59
2023-02-21T09:14:22.321Z,100289.19
2023-02-21T09:16:50.148Z,100330.50
2023-02-21T09:19:19.865Z,100314.31
2023-02-21T09:21:55.417Z,100346.59
2023-02-21T09:24:27.628Z,100355.09
2023-02-21T09:26:59.917Z,100366.13
2023-02-21T09:29:37.071Z,100366.13
2023-02-21T09:32:11.871Z,100344.28
2023-02-21T09:34:39.932Z,100383.84
2023-02-21T09:37:07.985Z,100358.50
2023-02-21T09:39:38.223Z,100394.44
2023-02-21T09:42:06.326Z,100386.22
2023-02-21T09:44:36.164Z,100388.44
2023-02-21T09:47:07.114Z,100416.41
2023-02-21T09:49:38.362Z,100393.50
2023-02-21T09:52:08.624Z,100373.88
2023-02-21T09:54:40.114Z,100395.94
2023-02-21T09:57:14.923Z,100438.88
2023-02-21T09:59:44.050Z,100448.00
2023-02-21T10:02:31.845Z,100444.88
2023-02-21T10:05:06.773Z,100459.34
2023-02-21T10:07:47.107Z,100460.13
2023-02-21T10:10:19.615Z,100475.09
2023-02-21T10:12:53.428Z,100476.66
2023-02-21T10:15:38.561Z,100482.03
2023-02-21T10:18:21.054Z,100493.13
2023-02-21T10:20:52.931Z,100501.22
2023-02-21T10:23:26.000Z,100509.66
2023-02-21T10:25:59.106Z,100514.09
2023-02-21T10:28:27.665Z,100498.91
2023-02-21T10:31:00.600Z,100515.13
2023-02-21T10:33:31.902Z,100543.91
2023-02-21T10:35:59.591Z,100552.28
2023-02-21T10:38:27.825Z,100541.28
2023-02-21T10:41:02.482Z,100516.00
2023-02-21T10:43:35.466Z,100560.72
2023-02-21T10:46:16.809Z,100572.66
2023-02-21T10:48:47.991Z,100584.78
2023-02-21T10:51:19.563Z,100593.41
2023-02-21T10:53:48.769Z,100598.56
2023-02-21T10:56:33.972Z,100602.81
2023-02-21T10:59:05.944Z,100614.63
2023-02-21T11:01:39.903Z,100622.16
2023-02-21T11:04:23.555Z,100622.94
2023-02-21T11:06:56.456Z,100634.66
2023-02-21T11:09:34.012Z,100623.94
2023-02-21T11:12:04.220Z,100633.56
2023-02-21T11:14:34.463Z,100646.09
2023-02-21T11:17:16.821Z,100675.53
2023-02-21T11:19:55.528Z,100676.47
2023-02-21T11:22:26.379Z,100690.06
2023-02-21T11:25:05.178Z,100690.53
2023-02-21T11:27:38.892Z,100692.94
2023-02-21T11:30:17.326Z,100710.22
2023-02-21T11:32:51.922Z,100715.47
2023-02-21T11:35:28.080Z,100714.66
2023-02-21T11:37:59.950Z,100715.53
2023-02-21T11:40:45.268Z,100727.38
2023-02-21T11:43:25.295Z,100739.28
2023-02-21T11:46:06.281Z,100737.53
2023-02-21T11:48:53.444Z,100730.03
2023-02-21T11:51:33.537Z,100753.75
2023-02-21T11:54:01.716Z,100760.47
2023-02-21T11:56:36.864Z,100766.50
2023-02-21T11:59:18.025Z,100740.16
2023-02-21T12:01:54.856Z,100786.56
2023-02-21T12:04:54.890Z,100800.25
2023-02-21T12:07:36.018Z,100792.66
2023-02-21T12:10:25.976Z,100771.56
2023-02-21T12:13:00.872Z,100814.97
2023-02-21T12:15:50.734Z,100815.03
2023-02-21T12:18:35.064Z,100817.69
2023-02-21T12:21:28.792Z,100833.81
2023-02-21T12:24:05.831Z,100840.63
2023-02-21T12:26:51.916Z,100847.38
2023-02-21T12:29:46.661Z,100855.84
2023-02-21T12:32:49.869Z,100861.78
2023-02-21T12:36:02.465Z,100869.44
2023-02-21T12:38:41.432Z,100882.09
2023-02-21T12:41:27.787Z,100846.53
2023-02-21T12:44:01.751Z,100890.59
2023-02-21T12:46:35.204Z,100903.31
2023-02-21T12:49:07.632Z,100901.63
2023-02-21T12:51:42.092Z,100894.84
2023-02-21T12:54:16.937Z,100905.84
2023-02-21T12:56:52.343Z,100910.09
2023-02-21T12:59:27.456Z,100911.81
2023-02-21T13:02:01.348Z,100921.13
2023-02-21T13:04:47.882Z,100935.56
2023-02-21T13:07:25.629Z,100942.34
2023-02-21T13:10:03.854Z,100910.13
2023-02-21T13:12:37.278Z,100953.38
2023-02-21T13:15:16.021Z,100954.19
2023-02-21T13:17:44.673Z,100963.53
2023-02-21T13:20:18.523Z,100961.84
2023-02-21T13:23:26.195Z,100972.88
2023-02-21T13:26:13.096Z,100983.03
2023-02-21T13:28:41.704Z,100938.94
2023-02-21T13:31:22.601Z,100989.81
2023-02-21T13:33:52.591Z,100998.25
2023-02-21T13:36:27.283Z,100991.47
2023-02-21T13:39:02.939Z,100999.06
2023-02-21T13:41:39.758Z,100984.63
2023-02-21T13:44:26.731Z,101010.06
2023-02-21T13:47:18.375Z,101011.72
2023-02-21T13:49:54.354Z,101032.03
2023-02-21T13:53:02.022Z,101037.13
2023-02-21T13:55:36.205Z,101033.78
2023-02-21T13:58:46.869Z,101034.63
2023-02-21T14:01:18.100Z,101046.50
2023-02-21T14:03:46.227Z,101000.63
2023-02-21T14:06:31.339Z,101053.31
2023-02-21T14:09:02.378Z,101063.47
2023-02-21T14:11:37.524Z,101069.41
2023-02-21T14:14:19.254Z,101071.06
2023-02-21T14:16:59.444Z,101072.78
2023-02-21T14:19:36.798Z,101075.34
2023-02-21T14:22:15.258Z,101078.72
2023-02-21T14:24:46.231Z,101092.22
2023-02-21T14:27:36.432Z,101092.19
2023-02-21T14:30:33.304Z,101106.56
2023-02-21T14:33:17.785Z,101103.16
2023-02-21T14:35:51.114Z,101111.69
2023-02-21T14:38:24.124Z,101117.56
2023-02-21T14:41:10.544Z,101103.06
2023-02-21T14:44:06.920Z,101133.47
2023-02-21T14:47:15.010Z,101139.44
2023-02-21T14:50:11.211Z,101153.75
2023-02-21T14:53:21.337Z,101130.81
2023-02-21T14:56:22.508Z,101161.38
2023-02-21T14:59:17.045Z,101168.75
2023-02-21T15:01:58.616Z,101169.59
2023-02-21T15:08:02.239Z,101180.19
2023-02-21T15:10:31.970Z,101179.25
2023-02-21T15:13:06.030Z,101190.22
2023-02-21T15:15:36.496Z,101196.97
2023-02-21T15:18:08.345Z,101194.63
2023-02-21T15:20:37.493Z,101180.94
2023-02-21T15:23:15.352Z,101203.09
2023-02-21T15:25:53.802Z,101209.84
2023-02-21T15:28:24.009Z,101205.56
2023-02-21T15:31:04.168Z,101208.91
2023-02-21T15:33:37.295Z,101206.34
2023-02-21T15:36:09.065Z,101217.41
2023-02-21T15:38:42.620Z,101228.41
2023-02-21T15:41:17.065Z,101230.78
2023-02-21T15:43:51.231Z,101232.50
2023-02-21T15:46:23.895Z,101239.91
2023-02-21T15:48:54.986Z,101239.91
2023-02-21T15:51:23.871Z,101238.16
2023-02-21T15:54:24.414Z,101215.19
2023-02-21T15:57:04.039Z,101256.81
2023-02-21T15:59:33.084Z,101253.44
2023-02-21T16:02:18.685Z,101248.34
2023-02-21T16:04:48.001Z,101266.84
2023-02-21T16:07:20.866Z,101239.69
2023-02-21T16:10:00.558Z,101266.81
2023-02-21T16:12:33.697Z,101273.66
2023-02-21T16:15:20.194Z,101245.38
2023-02-21T16:17:54.531Z,101287.06
2023-02-21T16:20:27.971Z,101284.50
2023-02-21T16:23:24.353Z,101296.22
2023-02-21T16:26:05.185Z,101290.47
2023-02-21T16:28:33.127Z,101303.06
2023-02-21T16:31:05.024Z,101300.44
2023-02-21T16:33:34.215Z,101309.16
2023-02-21T16:36:07.128Z,101312.53
2023-02-21T16:38:34.872Z,101320.09
2023-02-21T16:41:12.644Z,101320.88
2023-02-21T16:43:41.196Z,101329.25
2023-02-21T16:46:09.090Z,101338.66
2023-02-21T16:48:39.192Z,101345.56
2023-02-21T16:51:14.094Z,101331.91
2023-02-21T16:53:44.458Z,101341.28
2023-02-21T16:56:16.275Z,101359.84
2023-02-21T16:58:47.786Z,101357.16
2023-02-21T17:01:25.135Z,101362.31
2023-02-21T17:03:54.046Z,101353.78
2023-02-21T17:06:24.791Z,101370.59
2023-02-21T17:08:57.862Z,101373.38
2023-02-21T17:11:29.301Z,101385.97
2023-02-21T17:13:57.106Z,101381.06
2023-02-21T17:16:26.891Z,101358.47
2023-02-21T17:18:54.882Z,101329.56
2023-02-21T17:21:22.573Z,101385.22
2023-02-21T17:23:52.161Z,101378.34
2023-02-21T17:26:20.035Z,101391.81
2023-02-21T17:28:51.362Z,101387.53
2023-02-21T17:31:19.832Z,101396.75
2023-02-21T17:33:50.015Z,101383.16
2023-02-21T17:36:18.449Z,101406.34
2023-02-21T17:38:48.254Z,101416.34
2023-02-21T17:41:19.461Z,101415.63
2023-02-21T17:43:47.609Z,101416.28
2023-02-21T17:46:20.907Z,101382.06
2023-02-21T17:48:49.317Z,101423.06
2023-02-21T17:51:22.478Z,101430.38
2023-02-21T17:53:52.828Z,101441.56
2023-02-21T17:56:25.572Z,101444.56
2023-02-21T17:58:55.148Z,101444.00
2023-02-21T18:01:25.330Z,101447.38
2023-02-21T18:03:53.163Z,101453.50
2023-02-21T18:06:23.233Z,101438.88
2023-02-21T18:08:52.484Z,101450.66
2023-02-21T18:11:20.588Z,101434.63
2023-02-21T18:13:49.063Z,101406.53
2023-02-21T18:16:17.245Z,101449.13
2023-02-21T18:18:46.639Z,101443.19
2023-02-21T18:21:15.735Z,101409.00
2023-02-21T18:23:45.101Z,101413.19
2023-02-21T18:26:15.049Z,101447.22
2023-02-21T18:28:43.044Z,101460.78
2023-02-21T18:31:11.233Z,101460.03
2023-02-21T18:33:40.990Z,101454.81
2023-02-21T18:36:10.528Z,101448.13
2023-02-21T18:38:42.484Z,101460.94
2023-02-21T18:41:11.918Z,101463.47
2023-02-21T18:43:40.676Z,101467.88
2023-02-21T18:46:14.160Z,101465.25
2023-02-21T18:48:44.072Z,101466.16
2023-02-21T18:51:22.587Z,101477.03
2023-02-21T18:53:51.137Z,101436.97
2023-02-21T18:56:22.920Z,101483.81
2023-02-21T18:58:50.800Z,101477.91
2023-02-21T19:01:21.826Z,101483.88
2023-02-21T19:03:50.954Z,101483.00
2023-02-21T19:06:26.776Z,101490.66
2023-02-21T19:08:54.870Z,101492.25
2023-02-21T19:11:22.668Z,101488.16
2023-02-21T19:13:54.342Z,101489.91
2023-02-21T19:16:24.232Z,101496.78
2023-02-21T19:18:55.432Z,101507.69
2023-02-21T19:21:24.725Z,101497.38
2023-02-21T19:23:53.364Z,101504.41
2023-02-21T19:26:25.336Z,101514.31
2023-02-21T19:28:53.046Z,101510.03
2023-02-21T19:31:21.042Z,101514.31
2023-02-21T19:33:51.184Z,101519.41
2023-02-21T19:36:21.239Z,101522.59
2023-02-21T19:38:50.568Z,101524.41
2023-02-21T19:41:20.170Z,101523.50
2023-02-21T19:44:03.588Z,101533.84
2023-02-21T19:46:32.414Z,101526.16
2023-02-21T19:49:06.910Z,101527.69
2023-02-21T19:51:37.333Z,101531.13
2023-02-21T19:54:06.468Z,101534.66
2023-02-21T19:56:34.191Z,101509.78
2023-02-21T19:59:04.011Z,101538.09
2023-02-21T20:01:34.261Z,101531.91
2023-02-21T20:04:02.761Z,101545.47
2023-02-21T20:06:37.177Z,101536.22
2023-02-21T20:09:09.258Z,101539.81
2023-02-21T20:11:42.269Z,101548.16
2023-02-21T20:14:10.524Z,101517.44
2023-02-21T20:16:40.035Z,101514.75
2023-02-21T20:19:15.452Z,101556.63
2023-02-21T20:21:45.855Z,101536.53
2023-02-21T20:24:14.804Z,101561.00
2023-02-21T20:26:44.376Z,101566.56
2023-02-21T20:29:14.200Z,101577.53
2023-02-21T20:31:42.381Z,101576.56
2023-02-21T20:34:12.278Z,101587.44
2023-02-21T20:36:42.590Z,101580.63
2023-02-21T20:39:21.282Z,101593.59
2023-02-21T20:41:49.238Z,101598.28
2023-02-21T20:44:17.119Z,101593.88
2023-02-21T20:46:46.665Z,101591.91
2023-02-21T20:49:16.558Z,101604.47
2023-02-21T20:51:44.725Z,101598.25
2023-02-21T20:54:21.660Z,101570.50
2023-02-21T20:56:57.034Z,101573.91
2023-02-21T20:59:28.046Z,101604.34
2023-02-21T21:01:57.981Z,101601.75
2023-02-21T21:04:28.153Z,101600.41
2023-02-21T21:07:00.717Z,101611.56
2023-02-21T21:09:34.147Z,101611.75
2023-02-21T21:12:08.368Z,101609.97
2023-02-21T21:14:39.710Z,101614.03
2023-02-21T21:17:08.007Z,101616.72
2023-02-21T21:19:38.999Z,101621.72
2023-02-21T21:22:09.037Z,101628.63
2023-02-21T21:24:37.566Z,101634.53
2023-02-21T21:27:12.068Z,101634.56
2023-02-21T21:29:43.606Z,101627.78
2023-02-21T21:32:17.006Z,101639.34
2023-02-21T21:34:54.140Z,101636.13
2023-02-21T21:37:26.827Z,101617.09
2023-02-21T21:39:56.030Z,101629.19
2023-02-21T21:42:29.064Z,101640.34
2023-02-21T21:44:59.142Z,101640.59
2023-02-21T21:47:28.944Z,101647.28
2023-02-21T21:49:58.888Z,101645.53
2023-02-21T21:52:29.023Z,101647.22
2023-02-21T21:54:57.044Z,101645.34
2023-02-21T21:57:28.956Z,101653.78
2023-02-21T22:00:00.939Z,101611.94
2023-02-21T22:02:29.644Z,101658.00
2023-02-21T22:04:57.980Z,101645.94
2023-02-21T22:07:43.927Z,101655.38
2023-02-21T22:10:11.997Z,101666.50
2023-02-21T22:12:49.537Z,101677.56
2023-02-21T22:15:19.753Z,101635.00
2023-02-21T22:17:52.363Z,101631.31
2023-02-21T22:20:28.497Z,101679.09
2023-02-21T22:23:01.440Z,101679.25
2023-02-21T22:25:44.873Z,101681.22
2023-02-21T22:28:17.745Z,101684.72
2023-02-21T22:30:48.680Z,101681.47
2023-02-21T22:33:23.483Z,101678.03
2023-02-21T22:35:51.189Z,101655.53
2023-02-21T22:38:21.044Z,101680.47
2023-02-21T22:40:50.631Z,101686.41
2023-02-21T22:43:20.114Z,101679.59
2023-02-21T22:45:50.679Z,101659.19
2023-02-21T22:48:20.671Z,101685.47
2023-02-21T22:50:48.984Z,101685.31
2023-02-21T22:53:23.711Z,101687.84
2023-02-21T22:55:58.955Z,101676.78
2023-02-21T22:58:32.427Z,101681.13
2023-02-21T23:01:00.217Z,101683.88
2023-02-21T23:03:28.783Z,101676.06
2023-02-21T23:06:04.069Z,101689.25
2023-02-21T23:08:35.577Z,101660.47
2023-02-21T23:11:04.114Z,101681.22
2023-02-21T23:13:35.304Z,101683.88
2023-02-21T23:16:05.546Z,101691.97
2023-02-21T23:18:33.266Z,101696.53
2023-02-21T23:21:02.910Z,101700.34
2023-02-21T23:23:33.032Z,101701.38
2023-02-21T23:26:00.877Z,101707.34
2023-02-21T23:28:32.457Z,101711.25
2023-02-21T23:31:04.852Z,101709.28
2023-02-21T23:33:34.176Z,101710.63
2023-02-21T23:36:04.705Z,101702.06
2023-02-21T23:38:40.474Z,101717.06
2023-02-21T23:41:09.053Z,101696.41
2023-02-21T23:43:40.091Z,101726.34
2023-02-21T23:46:12.340Z,101718.97
2023-02-21T23:48:42.207Z,101719.06
2023-02-21T23:51:10.346Z,101732.50
2023-02-21T23:53:44.821Z,101705.78
2023-02-21T23:56:14.317Z,101730.69
2023-02-21T23:58:48.052Z,101726.44
